sensor_id;sensor_type;location;lat;lon;timestamp;temperature;humidity
13998;DHT22;7074;51.508;7.018;2023-03-26T00:00:40;10.20;99.90
13998;DHT22;7074;51.508;7.018;2023-03-26T00:03:11;10.30;99.90
13998;DHT22;7074;51.508;7.018;2023-03-26T00:05:39;10.30;99.90
13998;DHT22;7074;51.508;7.018;2023-03-26T00:08:07;10.30;99.90
13998;DHT22;7074;51.508;7.018;2023-03-26T00:10:35;10.30;99.90
13998;DHT22;7074;51.508;7.018;2023-03-26T00:13:03;10.30;99.90
13998;DHT22;7074;51.508;7.018;2023-03-26T00:15:32;10.30;99.90
13998;DHT22;7074;51.508;7.018;2023-03-26T00:17:59;10.30;99.90
13998;DHT22;7074;51.508;7.018;2023-03-26T00:20:29;10.40;99.90
13998;DHT22;7074;51.508;7.018;2023-03-26T00:22:58;10.40;99.90
13998;DHT22;7074;51.508;7.018;2023-03-26T00:25:26;10.40;99.90
13998;DHT22;7074;51.508;7.018;2023-03-26T00:27:53;10.40;99.90
13998;DHT22;7074;51.508;7.018;2023-03-26T00:30:21;10.50;99.90
13998;DHT22;7074;51.508;7.018;2023-03-26T00:32:48;10.50;99.90
13998;DHT22;7074;51.508;7.018;2023-03-26T00:35:16;10.50;99.90
13998;DHT22;7074;51.508;7.018;2023-03-26T00:37:45;10.50;99.90
13998;DHT22;7074;51.508;7.018;2023-03-26T00:40:12;10.60;99.90
13998;DHT22;7074;51.508;7.018;2023-03-26T00:42:39;10.60;99.90
13998;DHT22;7074;51.508;7.018;2023-03-26T00:45:07;10.60;99.90
13998;DHT22;7074;51.508;7.018;2023-03-26T00:47:35;10.70;99.90
13998;DHT22;7074;51.508;7.018;2023-03-26T00:50:06;10.70;99.90
13998;DHT22;7074;51.508;7.018;2023-03-26T00:52:41;10.80;99.90
13998;DHT22;7074;51.508;7.018;2023-03-26T00:55:15;10.70;99.90
13998;DHT22;7074;51.508;7.018;2023-03-26T00:57:42;10.70;99.90
13998;DHT22;7074;51.508;7.018;2023-03-26T01:00:14;10.70;99.90
13998;DHT22;7074;51.508;7.018;2023-03-26T01:02:45;10.70;99.90
13998;DHT22;7074;51.508;7.018;2023-03-26T01:05:39;10.60;99.90
13998;DHT22;7074;51.508;7.018;2023-03-26T01:08:17;10.70;99.90
13998;DHT22;7074;51.508;7.018;2023-03-26T01:10:47;10.60;99.90
13998;DHT22;7074;51.508;7.018;2023-03-26T01:13:18;10.70;99.90
13998;DHT22;7074;51.508;7.018;2023-03-26T01:15:46;10.70;99.90
13998;DHT22;7074;51.508;7.018;2023-03-26T01:18:18;10.70;99.90
13998;DHT22;7074;51.508;7.018;2023-03-26T01:20:48;10.70;99.90
13998;DHT22;7074;51.508;7.018;2023-03-26T01:23:21;10.70;99.90
13998;DHT22;7074;51.508;7.018;2023-03-26T01:25:55;10.80;99.90
13998;DHT22;7074;51.508;7.018;2023-03-26T01:28:28;10.80;99.90
13998;DHT22;7074;51.508;7.018;2023-03-26T01:31:00;10.70;99.90
13998;DHT22;7074;51.508;7.018;2023-03-26T01:33:35;10.80;99.90
13998;DHT22;7074;51.508;7.018;2023-03-26T01:36:08;10.80;99.90
13998;DHT22;7074;51.508;7.018;2023-03-26T01:38:40;10.80;99.90
13998;DHT22;7074;51.508;7.018;2023-03-26T01:41:18;10.80;99.90
13998;DHT22;7074;51.508;7.018;2023-03-26T01:43:51;10.80;99.90
13998;DHT22;7074;51.508;7.018;2023-03-26T01:46:21;10.80;99.90
13998;DHT22;7074;51.508;7.018;2023-03-26T01:48:50;10.80;99.90
13998;DHT22;7074;51.508;7.018;2023-03-26T01:51:26;10.80;99.90
13998;DHT22;7074;51.508;7.018;2023-03-26T01:53:54;10.90;99.90
13998;DHT22;7074;51.508;7.018;2023-03-26T01:56:32;10.90;99.90
13998;DHT22;7074;51.508;7.018;2023-03-26T01:59:07;10.80;99.90
13998;DHT22;7074;51.508;7.018;2023-03-26T02:01:43;10.80;99.90
13998;DHT22;7074;51.508;7.018;2023-03-26T02:04:21;10.80;99.90
13998;DHT22;7074;51.508;7.018;2023-03-26T02:06:53;10.80;99.90
13998;DHT22;7074;51.508;7.018;2023-03-26T02:09:26;10.80;99.90
13998;DHT22;7074;51.508;7.018;2023-03-26T02:11:58;10.80;99.90
13998;DHT22;7074;51.508;7.018;2023-03-26T02:14:29;10.70;99.90
13998;DHT22;7074;51.508;7.018;2023-03-26T02:16:56;10.70;99.90
13998;DHT22;7074;51.508;7.018;2023-03-26T02:19:24;10.60;99.90
13998;DHT22;7074;51.508;7.018;2023-03-26T02:21:52;10.60;99.90
13998;DHT22;7074;51.508;7.018;2023-03-26T02:24:26;10.60;99.90
13998;DHT22;7074;51.508;7.018;2023-03-26T02:26:57;10.60;99.90
13998;DHT22;7074;51.508;7.018;2023-03-26T02:29:27;10.60;99.90
13998;DHT22;7074;51.508;7.018;2023-03-26T02:31:54;10.60;99.90
13998;DHT22;7074;51.508;7.018;2023-03-26T02:34:21;10.50;99.90
13998;DHT22;7074;51.508;7.018;2023-03-26T02:36:51;10.50;99.90
13998;DHT22;7074;51.508;7.018;2023-03-26T02:39:18;10.50;99.90
13998;DHT22;7074;51.508;7.018;2023-03-26T02:41:53;10.40;99.90
13998;DHT22;7074;51.508;7.018;2023-03-26T02:44:22;10.40;99.90
13998;DHT22;7074;51.508;7.018;2023-03-26T02:47:10;10.40;99.90
13998;DHT22;7074;51.508;7.018;2023-03-26T02:49:40;10.40;99.90
13998;DHT22;7074;51.508;7.018;2023-03-26T02:52:07;10.40;99.90
13998;DHT22;7074;51.508;7.018;2023-03-26T02:54:35;10.40;99.90
13998;DHT22;7074;51.508;7.018;2023-03-26T02:57:20;10.40;99.90
13998;DHT22;7074;51.508;7.018;2023-03-26T02:59:55;10.40;99.90
13998;DHT22;7074;51.508;7.018;2023-03-26T03:02:34;10.40;99.90
13998;DHT22;7074;51.508;7.018;2023-03-26T03:05:22;10.40;99.90
13998;DHT22;7074;51.508;7.018;2023-03-26T03:07:58;10.30;99.90
13998;DHT22;7074;51.508;7.018;2023-03-26T03:10:27;10.30;99.90
13998;DHT22;7074;51.508;7.018;2023-03-26T03:13:00;10.30;99.90
13998;DHT22;7074;51.508;7.018;2023-03-26T03:15:30;10.30;99.90
13998;DHT22;7074;51.508;7.018;2023-03-26T03:17:57;10.30;99.90
13998;DHT22;7074;51.508;7.018;2023-03-26T03:20:28;10.30;99.90
13998;DHT22;7074;51.508;7.018;2023-03-26T03:22:56;10.30;99.90
13998;DHT22;7074;51.508;7.018;2023-03-26T03:25:23;10.30;99.90
13998;DHT22;7074;51.508;7.018;2023-03-26T03:27:50;10.30;99.90
13998;DHT22;7074;51.508;7.018;2023-03-26T03:30:18;10.30;99.90
13998;DHT22;7074;51.508;7.018;2023-03-26T03:33:07;10.30;99.90
13998;DHT22;7074;51.508;7.018;2023-03-26T03:35:35;10.30;99.90
13998;DHT22;7074;51.508;7.018;2023-03-26T03:38:03;10.30;99.90
13998;DHT22;7074;51.508;7.018;2023-03-26T03:40:39;10.40;99.90
13998;DHT22;7074;51.508;7.018;2023-03-26T03:43:07;10.30;99.90
13998;DHT22;7074;51.508;7.018;2023-03-26T03:45:43;10.30;99.90
13998;DHT22;7074;51.508;7.018;2023-03-26T03:48:30;10.20;99.90
13998;DHT22;7074;51.508;7.018;2023-03-26T03:50:59;10.20;99.90
13998;DHT22;7074;51.508;7.018;2023-03-26T03:53:31;10.20;99.90
13998;DHT22;7074;51.508;7.018;2023-03-26T03:56:02;10.20;99.90
13998;DHT22;7074;51.508;7.018;2023-03-26T03:58:54;10.20;99.90
13998;DHT22;7074;51.508;7.018;2023-03-26T04:01:29;10.20;99.90
13998;DHT22;7074;51.508;7.018;2023-03-26T04:04:07;10.20;99.90
13998;DHT22;7074;51.508;7.018;2023-03-26T04:06:53;10.20;99.90
13998;DHT22;7074;51.508;7.018;2023-03-26T04:09:23;10.20;99.90
13998;DHT22;7074;51.508;7.018;2023-03-26T04:11:52;10.20;99.90
13998;DHT22;7074;51.508;7.018;2023-03-26T04:14:46;10.20;99.90
13998;DHT22;7074;51.508;7.018;2023-03-26T04:17:15;10.20;99.90
13998;DHT22;7074;51.508;7.018;2023-03-26T04:19:46;10.20;99.90
13998;DHT22;7074;51.508;7.018;2023-03-26T04:22:14;10.20;99.90
13998;DHT22;7074;51.508;7.018;2023-03-26T04:24:53;10.20;99.90
13998;DHT22;7074;51.508;7.018;2023-03-26T04:27:30;10.20;99.90
13998;DHT22;7074;51.508;7.018;2023-03-26T04:30:23;10.20;99.90
13998;DHT22;7074;51.508;7.018;2023-03-26T04:33:03;10.10;99.90
13998;DHT22;7074;51.508;7.018;2023-03-26T04:35:35;10.10;99.90
13998;DHT22;7074;51.508;7.018;2023-03-26T04:38:09;10.10;99.90
13998;DHT22;7074;51.508;7.018;2023-03-26T04:40:40;10.10;99.90
13998;DHT22;7074;51.508;7.018;2023-03-26T04:43:32;10.00;99.90
13998;DHT22;7074;51.508;7.018;2023-03-26T04:46:15;10.10;99.90
13998;DHT22;7074;51.508;7.018;2023-03-26T04:48:51;10.10;99.90
13998;DHT22;7074;51.508;7.018;2023-03-26T04:51:24;10.10;99.90
13998;DHT22;7074;51.508;7.018;2023-03-26T04:53:55;10.10;99.90
13998;DHT22;7074;51.508;7.018;2023-03-26T04:56:39;10.10;99.90
13998;DHT22;7074;51.508;7.018;2023-03-26T04:59:12;10.10;99.90
13998;DHT22;7074;51.508;7.018;2023-03-26T05:01:41;10.10;99.90
13998;DHT22;7074;51.508;7.018;2023-03-26T05:04:12;10.10;99.90
13998;DHT22;7074;51.508;7.018;2023-03-26T05:06:41;10.10;99.90
13998;DHT22;7074;51.508;7.018;2023-03-26T05:09:18;10.10;99.90
13998;DHT22;7074;51.508;7.018;2023-03-26T05:12:04;10.10;99.90
13998;DHT22;7074;51.508;7.018;2023-03-26T05:14:41;10.00;99.90
13998;DHT22;7074;51.508;7.018;2023-03-26T05:17:15;10.00;99.90
13998;DHT22;7074;51.508;7.018;2023-03-26T05:19:43;9.90;99.90
13998;DHT22;7074;51.508;7.018;2023-03-26T05:22:14;10.00;99.90
13998;DHT22;7074;51.508;7.018;2023-03-26T05:25:01;10.00;99.90
13998;DHT22;7074;51.508;7.018;2023-03-26T05:27:29;10.00;99.90
13998;DHT22;7074;51.508;7.018;2023-03-26T05:29:59;10.10;99.90
13998;DHT22;7074;51.508;7.018;2023-03-26T05:32:29;10.20;99.90
13998;DHT22;7074;51.508;7.018;2023-03-26T05:34:56;10.10;99.90
13998;DHT22;7074;51.508;7.018;2023-03-26T05:37:27;10.10;99.90
13998;DHT22;7074;51.508;7.018;2023-03-26T05:40:03;10.10;99.90
13998;DHT22;7074;51.508;7.018;2023-03-26T05:42:42;10.20;99.90
13998;DHT22;7074;51.508;7.018;2023-03-26T05:45:36;10.30;99.90
13998;DHT22;7074;51.508;7.018;2023-03-26T05:48:35;10.20;99.90
13998;DHT22;7074;51.508;7.018;2023-03-26T05:51:04;10.10;99.90
13998;DHT22;7074;51.508;7.018;2023-03-26T05:53:34;10.00;99.90
13998;DHT22;7074;51.508;7.018;2023-03-26T05:56:20;9.90;99.90
13998;DHT22;7074;51.508;7.018;2023-03-26T05:59:07;10.00;99.90
13998;DHT22;7074;51.508;7.018;2023-03-26T06:01:41;10.10;99.90
13998;DHT22;7074;51.508;7.018;2023-03-26T06:04:15;10.20;99.90
13998;DHT22;7074;51.508;7.018;2023-03-26T06:07:06;10.20;99.90
13998;DHT22;7074;51.508;7.018;2023-03-26T06:09:37;10.20;99.90
13998;DHT22;7074;51.508;7.018;2023-03-26T06:12:06;10.30;99.90
13998;DHT22;7074;51.508;7.018;2023-03-26T06:14:35;10.30;99.90
13998;DHT22;7074;51.508;7.018;2023-03-26T06:17:26;10.40;99.90
13998;DHT22;7074;51.508;7.018;2023-03-26T06:20:11;10.40;99.90
13998;DHT22;7074;51.508;7.018;2023-03-26T06:22:41;10.50;99.90
13998;DHT22;7074;51.508;7.018;2023-03-26T06:25:21;10.50;99.90
13998;DHT22;7074;51.508;7.018;2023-03-26T06:28:04;10.50;99.90
13998;DHT22;7074;51.508;7.018;2023-03-26T06:30:58;10.50;99.90
13998;DHT22;7074;51.508;7.018;2023-03-26T06:33:32;10.50;99.90
13998;DHT22;7074;51.508;7.018;2023-03-26T06:35:59;10.60;99.90
13998;DHT22;7074;51.508;7.018;2023-03-26T06:38:26;10.60;99.90
13998;DHT22;7074;51.508;7.018;2023-03-26T06:41:02;10.60;99.90
13998;DHT22;7074;51.508;7.018;2023-03-26T06:43:48;10.60;99.90
13998;DHT22;7074;51.508;7.018;2023-03-26T06:46:34;10.60;99.90
13998;DHT22;7074;51.508;7.018;2023-03-26T06:49:20;10.50;99.90
13998;DHT22;7074;51.508;7.018;2023-03-26T06:52:05;10.40;99.90
13998;DHT22;7074;51.508;7.018;2023-03-26T06:55:00;10.50;99.90
13998;DHT22;7074;51.508;7.018;2023-03-26T06:57:50;10.70;99.90
13998;DHT22;7074;51.508;7.018;2023-03-26T07:00:37;10.60;99.90
13998;DHT22;7074;51.508;7.018;2023-03-26T07:03:24;10.70;99.90
13998;DHT22;7074;51.508;7.018;2023-03-26T07:06:17;10.80;99.90
13998;DHT22;7074;51.508;7.018;2023-03-26T07:08:47;10.70;99.90
13998;DHT22;7074;51.508;7.018;2023-03-26T07:11:33;10.80;99.90
13998;DHT22;7074;51.508;7.018;2023-03-26T07:14:22;10.80;99.90
13998;DHT22;7074;51.508;7.018;2023-03-26T07:17:08;10.80;99.90
13998;DHT22;7074;51.508;7.018;2023-03-26T07:19:53;10.70;99.90
13998;DHT22;7074;51.508;7.018;2023-03-26T07:22:24;10.70;99.90
13998;DHT22;7074;51.508;7.018;2023-03-26T07:25:12;10.70;99.90
13998;DHT22;7074;51.508;7.018;2023-03-26T07:28:02;10.60;99.90
13998;DHT22;7074;51.508;7.018;2023-03-26T07:31:03;10.50;99.90
13998;DHT22;7074;51.508;7.018;2023-03-26T07:33:51;10.50;99.90
13998;DHT22;7074;51.508;7.018;2023-03-26T07:36:56;10.40;99.90
13998;DHT22;7074;51.508;7.018;2023-03-26T07:39:38;10.50;99.90
13998;DHT22;7074;51.508;7.018;2023-03-26T07:42:21;10.50;99.90
13998;DHT22;7074;51.508;7.018;2023-03-26T07:45:18;10.40;99.90
13998;DHT22;7074;51.508;7.018;2023-03-26T07:48:09;10.50;99.90
13998;DHT22;7074;51.508;7.018;2023-03-26T07:51:14;10.50;99.90
13998;DHT22;7074;51.508;7.018;2023-03-26T07:54:16;10.60;99.90
13998;DHT22;7074;51.508;7.018;2023-03-26T07:56:49;10.50;99.90
13998;DHT22;7074;51.508;7.018;2023-03-26T07:59:40;10.50;99.90
13998;DHT22;7074;51.508;7.018;2023-03-26T08:02:49;10.40;99.90
13998;DHT22;7074;51.508;7.018;2023-03-26T08:05:51;10.50;99.90
13998;DHT22;7074;51.508;7.018;2023-03-26T08:08:52;10.60;99.90
13998;DHT22;7074;51.508;7.018;2023-03-26T08:11:36;10.60;99.90
13998;DHT22;7074;51.508;7.018;2023-03-26T08:14:18;10.70;99.90
13998;DHT22;7074;51.508;7.018;2023-03-26T08:16:53;10.60;99.90
13998;DHT22;7074;51.508;7.018;2023-03-26T08:19:32;10.60;99.90
13998;DHT22;7074;51.508;7.018;2023-03-26T08:22:11;10.60;99.90
13998;DHT22;7074;51.508;7.018;2023-03-26T08:24:48;10.60;99.90
13998;DHT22;7074;51.508;7.018;2023-03-26T08:27:23;10.60;99.90
13998;DHT22;7074;51.508;7.018;2023-03-26T08:30:01;10.60;99.90
13998;DHT22;7074;51.508;7.018;2023-03-26T08:32:30;10.70;99.90
13998;DHT22;7074;51.508;7.018;2023-03-26T08:34:58;10.70;99.90
13998;DHT22;7074;51.508;7.018;2023-03-26T08:37:27;10.70;99.90
13998;DHT22;7074;51.508;7.018;2023-03-26T08:39:54;10.80;99.90
13998;DHT22;7074;51.508;7.018;2023-03-26T08:42:45;10.60;99.90
13998;DHT22;7074;51.508;7.018;2023-03-26T08:45:35;10.50;99.90
13998;DHT22;7074;51.508;7.018;2023-03-26T08:57:44;10.70;99.90
13998;DHT22;7074;51.508;7.018;2023-03-26T09:00:32;10.80;99.90
13998;DHT22;7074;51.508;7.018;2023-03-26T09:03:30;10.80;99.90
13998;DHT22;7074;51.508;7.018;2023-03-26T09:06:38;10.80;99.90
13998;DHT22;7074;51.508;7.018;2023-03-26T09:12:53;10.80;99.90
13998;DHT22;7074;51.508;7.018;2023-03-26T09:15:57;10.80;99.90
13998;DHT22;7074;51.508;7.018;2023-03-26T09:21:52;10.80;99.90
13998;DHT22;7074;51.508;7.018;2023-03-26T09:27:43;10.60;99.90
13998;DHT22;7074;51.508;7.018;2023-03-26T09:30:37;10.70;99.90
13998;DHT22;7074;51.508;7.018;2023-03-26T09:33:39;10.70;99.90
13998;DHT22;7074;51.508;7.018;2023-03-26T09:36:31;10.80;99.90
13998;DHT22;7074;51.508;7.018;2023-03-26T09:39:08;10.80;99.90
13998;DHT22;7074;51.508;7.018;2023-03-26T09:41:41;10.80;99.90
13998;DHT22;7074;51.508;7.018;2023-03-26T09:50:29;10.80;99.90
13998;DHT22;7074;51.508;7.018;2023-03-26T09:53:09;10.90;99.90
13998;DHT22;7074;51.508;7.018;2023-03-26T09:55:52;10.90;99.90
13998;DHT22;7074;51.508;7.018;2023-03-26T09:58:55;10.80;99.90
13998;DHT22;7074;51.508;7.018;2023-03-26T10:01:38;10.90;99.90
13998;DHT22;7074;51.508;7.018;2023-03-26T10:04:35;10.90;99.90
13998;DHT22;7074;51.508;7.018;2023-03-26T10:07:09;11.00;99.90
13998;DHT22;7074;51.508;7.018;2023-03-26T10:09:51;11.00;99.90
13998;DHT22;7074;51.508;7.018;2023-03-26T10:12:29;11.00;99.90
13998;DHT22;7074;51.508;7.018;2023-03-26T10:15:14;11.00;99.90
13998;DHT22;7074;51.508;7.018;2023-03-26T10:17:54;11.10;99.90
13998;DHT22;7074;51.508;7.018;2023-03-26T10:20:43;11.10;99.90
13998;DHT22;7074;51.508;7.018;2023-03-26T10:23:31;11.10;99.90
13998;DHT22;7074;51.508;7.018;2023-03-26T10:26:17;11.20;99.90
13998;DHT22;7074;51.508;7.018;2023-03-26T10:29:29;11.20;99.90
13998;DHT22;7074;51.508;7.018;2023-03-26T10:32:09;11.20;99.90
13998;DHT22;7074;51.508;7.018;2023-03-26T10:34:51;11.30;99.90
13998;DHT22;7074;51.508;7.018;2023-03-26T10:37:29;11.40;99.90
13998;DHT22;7074;51.508;7.018;2023-03-26T10:40:26;11.50;99.90
13998;DHT22;7074;51.508;7.018;2023-03-26T10:43:16;11.40;99.90
13998;DHT22;7074;51.508;7.018;2023-03-26T10:46:02;11.40;99.90
13998;DHT22;7074;51.508;7.018;2023-03-26T10:51:50;11.30;99.90
13998;DHT22;7074;51.508;7.018;2023-03-26T10:54:28;11.30;99.90
13998;DHT22;7074;51.508;7.018;2023-03-26T10:57:00;11.30;99.90
13998;DHT22;7074;51.508;7.018;2023-03-26T10:59:28;11.30;99.90
13998;DHT22;7074;51.508;7.018;2023-03-26T11:02:09;11.30;99.90
13998;DHT22;7074;51.508;7.018;2023-03-26T11:04:49;11.30;99.90
13998;DHT22;7074;51.508;7.018;2023-03-26T11:07:23;11.20;99.90
13998;DHT22;7074;51.508;7.018;2023-03-26T11:09:59;11.20;99.90
13998;DHT22;7074;51.508;7.018;2023-03-26T11:12:33;11.00;99.90
13998;DHT22;7074;51.508;7.018;2023-03-26T11:15:12;10.90;99.90
13998;DHT22;7074;51.508;7.018;2023-03-26T11:17:50;10.60;99.90
13998;DHT22;7074;51.508;7.018;2023-03-26T11:20:27;10.70;99.90
13998;DHT22;7074;51.508;7.018;2023-03-26T11:23:14;10.80;99.90
13998;DHT22;7074;51.508;7.018;2023-03-26T11:25:56;10.80;99.90
13998;DHT22;7074;51.508;7.018;2023-03-26T11:31:24;10.90;99.90
13998;DHT22;7074;51.508;7.018;2023-03-26T11:33:58;10.90;99.90
13998;DHT22;7074;51.508;7.018;2023-03-26T11:36:32;10.90;99.90
13998;DHT22;7074;51.508;7.018;2023-03-26T11:39:05;11.00;99.90
13998;DHT22;7074;51.508;7.018;2023-03-26T11:41:38;10.90;99.90
13998;DHT22;7074;51.508;7.018;2023-03-26T11:44:14;11.00;99.90
13998;DHT22;7074;51.508;7.018;2023-03-26T11:46:46;11.00;99.90
13998;DHT22;7074;51.508;7.018;2023-03-26T11:49:17;11.00;99.90
13998;DHT22;7074;51.508;7.018;2023-03-26T11:51:46;11.10;99.90
13998;DHT22;7074;51.508;7.018;2023-03-26T11:54:16;11.10;99.90
13998;DHT22;7074;51.508;7.018;2023-03-26T11:56:47;10.90;99.90
13998;DHT22;7074;51.508;7.018;2023-03-26T11:59:21;11.10;99.90
13998;DHT22;7074;51.508;7.018;2023-03-26T12:01:52;11.00;99.90
13998;DHT22;7074;51.508;7.018;2023-03-26T12:04:26;11.10;99.90
13998;DHT22;7074;51.508;7.018;2023-03-26T12:06:56;11.00;99.90
13998;DHT22;7074;51.508;7.018;2023-03-26T12:09:25;11.00;99.90
13998;DHT22;7074;51.508;7.018;2023-03-26T12:11:58;11.10;99.90
13998;DHT22;7074;51.508;7.018;2023-03-26T12:14:27;11.10;99.90
13998;DHT22;7074;51.508;7.018;2023-03-26T12:16:57;11.20;99.90
13998;DHT22;7074;51.508;7.018;2023-03-26T12:19:24;11.30;99.90
13998;DHT22;7074;51.508;7.018;2023-03-26T12:21:54;11.40;99.90
13998;DHT22;7074;51.508;7.018;2023-03-26T12:24:29;11.40;99.90
13998;DHT22;7074;51.508;7.018;2023-03-26T12:26:58;11.50;99.90
13998;DHT22;7074;51.508;7.018;2023-03-26T12:29:29;11.40;99.90
13998;DHT22;7074;51.508;7.018;2023-03-26T12:32:05;11.50;99.90
13998;DHT22;7074;51.508;7.018;2023-03-26T12:34:35;11.60;99.90
13998;DHT22;7074;51.508;7.018;2023-03-26T12:37:05;11.70;99.90
13998;DHT22;7074;51.508;7.018;2023-03-26T12:39:37;11.70;99.90
13998;DHT22;7074;51.508;7.018;2023-03-26T12:42:24;11.60;99.90
13998;DHT22;7074;51.508;7.018;2023-03-26T12:44:52;11.60;99.90
13998;DHT22;7074;51.508;7.018;2023-03-26T12:47:22;11.60;99.90
13998;DHT22;7074;51.508;7.018;2023-03-26T12:49:52;11.80;99.90
13998;DHT22;7074;51.508;7.018;2023-03-26T12:52:58;11.80;99.90
13998;DHT22;7074;51.508;7.018;2023-03-26T12:55:38;11.60;99.90
13998;DHT22;7074;51.508;7.018;2023-03-26T12:58:20;11.70;99.90
13998;DHT22;7074;51.508;7.018;2023-03-26T13:00:55;11.80;99.90
13998;DHT22;7074;51.508;7.018;2023-03-26T13:03:43;11.80;99.90
13998;DHT22;7074;51.508;7.018;2023-03-26T13:06:21;11.90;99.90
13998;DHT22;7074;51.508;7.018;2023-03-26T13:09:24;11.70;99.90
13998;DHT22;7074;51.508;7.018;2023-03-26T13:12:10;11.70;99.90
13998;DHT22;7074;51.508;7.018;2023-03-26T13:17:44;11.40;99.90
13998;DHT22;7074;51.508;7.018;2023-03-26T13:20:16;11.20;99.90
13998;DHT22;7074;51.508;7.018;2023-03-26T13:22:52;11.10;99.90
13998;DHT22;7074;51.508;7.018;2023-03-26T13:25:32;11.30;99.90
13998;DHT22;7074;51.508;7.018;2023-03-26T13:28:15;11.40;99.90
13998;DHT22;7074;51.508;7.018;2023-03-26T13:30:47;11.20;99.90
13998;DHT22;7074;51.508;7.018;2023-03-26T13:33:29;11.30;99.90
13998;DHT22;7074;51.508;7.018;2023-03-26T13:36:03;11.20;99.90
13998;DHT22;7074;51.508;7.018;2023-03-26T13:38:41;11.30;99.90
13998;DHT22;7074;51.508;7.018;2023-03-26T13:41:20;11.20;99.90
13998;DHT22;7074;51.508;7.018;2023-03-26T13:43:59;11.10;99.90
13998;DHT22;7074;51.508;7.018;2023-03-26T13:46:32;11.20;99.90
13998;DHT22;7074;51.508;7.018;2023-03-26T13:49:02;11.20;99.90
13998;DHT22;7074;51.508;7.018;2023-03-26T13:51:37;11.20;99.90
13998;DHT22;7074;51.508;7.018;2023-03-26T13:54:17;11.40;99.90
13998;DHT22;7074;51.508;7.018;2023-03-26T13:56:49;11.40;99.90
13998;DHT22;7074;51.508;7.018;2023-03-26T13:59:21;11.60;99.90
13998;DHT22;7074;51.508;7.018;2023-03-26T14:01:53;11.40;99.90
13998;DHT22;7074;51.508;7.018;2023-03-26T14:04:25;11.50;99.90
13998;DHT22;7074;51.508;7.018;2023-03-26T14:07:02;11.70;99.90
13998;DHT22;7074;51.508;7.018;2023-03-26T14:09:36;11.50;99.90
13998;DHT22;7074;51.508;7.018;2023-03-26T14:12:26;11.80;99.90
13998;DHT22;7074;51.508;7.018;2023-03-26T14:14:59;11.90;99.90
13998;DHT22;7074;51.508;7.018;2023-03-26T14:17:35;11.80;99.90
13998;DHT22;7074;51.508;7.018;2023-03-26T14:20:27;11.40;99.90
13998;DHT22;7074;51.508;7.018;2023-03-26T14:23:22;11.20;99.90
13998;DHT22;7074;51.508;7.018;2023-03-26T14:26:05;11.20;99.90
13998;DHT22;7074;51.508;7.018;2023-03-26T14:31:57;11.40;99.90
13998;DHT22;7074;51.508;7.018;2023-03-26T14:34:33;11.50;99.90
13998;DHT22;7074;51.508;7.018;2023-03-26T14:37:42;11.50;99.90
13998;DHT22;7074;51.508;7.018;2023-03-26T14:40:27;11.50;99.90
13998;DHT22;7074;51.508;7.018;2023-03-26T14:43:06;11.50;99.90
13998;DHT22;7074;51.508;7.018;2023-03-26T14:45:54;11.10;99.90
13998;DHT22;7074;51.508;7.018;2023-03-26T14:48:55;11.20;99.90
13998;DHT22;7074;51.508;7.018;2023-03-26T14:54:18;11.40;99.90
13998;DHT22;7074;51.508;7.018;2023-03-26T15:00:06;11.20;99.90
13998;DHT22;7074;51.508;7.018;2023-03-26T15:06:39;11.50;99.90
13998;DHT22;7074;51.508;7.018;2023-03-26T15:12:28;11.00;99.90
13998;DHT22;7074;51.508;7.018;2023-03-26T15:21:35;10.60;99.90
13998;DHT22;7074;51.508;7.018;2023-03-26T15:27:36;10.50;99.90
13998;DHT22;7074;51.508;7.018;2023-03-26T15:30:41;10.40;99.90
13998;DHT22;7074;51.508;7.018;2023-03-26T15:33:37;10.50;99.90
13998;DHT22;7074;51.508;7.018;2023-03-26T15:39:43;10.60;99.90
13998;DHT22;7074;51.508;7.018;2023-03-26T15:42:25;10.60;99.90
13998;DHT22;7074;51.508;7.018;2023-03-26T15:45:16;10.50;99.90
13998;DHT22;7074;51.508;7.018;2023-03-26T15:48:04;10.50;99.90
13998;DHT22;7074;51.508;7.018;2023-03-26T15:50:46;10.30;99.90
13998;DHT22;7074;51.508;7.018;2023-03-26T15:53:30;10.40;99.90
13998;DHT22;7074;51.508;7.018;2023-03-26T15:56:13;10.50;99.90
13998;DHT22;7074;51.508;7.018;2023-03-26T15:58:48;10.50;99.90
13998;DHT22;7074;51.508;7.018;2023-03-26T16:01:27;10.20;99.90
13998;DHT22;7074;51.508;7.018;2023-03-26T16:04:10;10.00;99.90
13998;DHT22;7074;51.508;7.018;2023-03-26T16:06:47;10.00;99.90
13998;DHT22;7074;51.508;7.018;2023-03-26T16:09:49;10.10;99.90
13998;DHT22;7074;51.508;7.018;2023-03-26T16:12:30;9.60;99.90
13998;DHT22;7074;51.508;7.018;2023-03-26T16:15:18;9.60;99.90
13998;DHT22;7074;51.508;7.018;2023-03-26T16:21:02;9.60;99.90
13998;DHT22;7074;51.508;7.018;2023-03-26T16:23:34;9.70;99.90
13998;DHT22;7074;51.508;7.018;2023-03-26T16:26:22;9.70;99.90
13998;DHT22;7074;51.508;7.018;2023-03-26T16:29:18;9.80;99.90
13998;DHT22;7074;51.508;7.018;2023-03-26T16:32:12;9.80;99.90
13998;DHT22;7074;51.508;7.018;2023-03-26T16:34:46;9.80;99.90
13998;DHT22;7074;51.508;7.018;2023-03-26T16:37:40;9.90;99.90
13998;DHT22;7074;51.508;7.018;2023-03-26T16:43:46;9.80;99.90
13998;DHT22;7074;51.508;7.018;2023-03-26T16:46:28;9.50;99.90
13998;DHT22;7074;51.508;7.018;2023-03-26T16:49:00;9.60;99.90
13998;DHT22;7074;51.508;7.018;2023-03-26T16:51:42;9.50;99.90
13998;DHT22;7074;51.508;7.018;2023-03-26T16:54:18;9.70;99.90
13998;DHT22;7074;51.508;7.018;2023-03-26T16:56:53;9.70;99.90
13998;DHT22;7074;51.508;7.018;2023-03-26T16:59:47;9.60;99.90
13998;DHT22;7074;51.508;7.018;2023-03-26T17:02:25;9.60;99.90
13998;DHT22;7074;51.508;7.018;2023-03-26T17:05:05;9.70;99.90
13998;DHT22;7074;51.508;7.018;2023-03-26T17:07:38;9.60;99.90
13998;DHT22;7074;51.508;7.018;2023-03-26T17:10:14;9.80;99.90
13998;DHT22;7074;51.508;7.018;2023-03-26T17:12:46;9.90;99.90
13998;DHT22;7074;51.508;7.018;2023-03-26T17:15:23;9.80;99.90
13998;DHT22;7074;51.508;7.018;2023-03-26T17:18:14;9.50;99.90
13998;DHT22;7074;51.508;7.018;2023-03-26T17:20:50;9.60;99.90
13998;DHT22;7074;51.508;7.018;2023-03-26T17:23:29;9.40;99.90
13998;DHT22;7074;51.508;7.018;2023-03-26T17:26:09;9.50;99.90
13998;DHT22;7074;51.508;7.018;2023-03-26T17:28:53;9.40;99.90
13998;DHT22;7074;51.508;7.018;2023-03-26T17:31:34;9.40;99.90
13998;DHT22;7074;51.508;7.018;2023-03-26T17:34:42;9.40;99.90
13998;DHT22;7074;51.508;7.018;2023-03-26T17:37:50;9.40;99.90
13998;DHT22;7074;51.508;7.018;2023-03-26T17:40:49;9.50;99.90
13998;DHT22;7074;51.508;7.018;2023-03-26T17:43:38;9.50;99.90
13998;DHT22;7074;51.508;7.018;2023-03-26T17:46:21;9.60;99.90
13998;DHT22;7074;51.508;7.018;2023-03-26T17:48:57;9.60;99.90
13998;DHT22;7074;51.508;7.018;2023-03-26T17:51:42;9.40;99.90
13998;DHT22;7074;51.508;7.018;2023-03-26T17:54:18;9.40;99.90
13998;DHT22;7074;51.508;7.018;2023-03-26T17:56:47;9.40;99.90
13998;DHT22;7074;51.508;7.018;2023-03-26T17:59:18;9.10;99.90
13998;DHT22;7074;51.508;7.018;2023-03-26T18:01:50;9.10;99.90
13998;DHT22;7074;51.508;7.018;2023-03-26T18:04:28;9.00;99.90
13998;DHT22;7074;51.508;7.018;2023-03-26T18:07:13;9.10;99.90
13998;DHT22;7074;51.508;7.018;2023-03-26T18:09:56;9.10;99.90